Aeroporto :
LOGIN :

Iscrizione | Disclaimer

   EN    FR    IT 

 










Sommario :    VFR   VFR Marginale   IFR   IFR Intensivo   IFR Molto Intensivo
Visibilità : 
Base nubi : 
>= 8 km
>= 3000ft
5 / 8 km
1000 / 3000 ft
1500m / 5 km
500 / 1000 ft
800 / 1500m
200 / 500 ft
< 800m
< 200 ft
Simboli :   Temporali  Nebbia  Neve Forte  Precipitazioni Forti  Vento > 20 kt
SIGMETs :   Varie  Temporali  Ghiacco  Turbolenza  Onda orograficha  Ceneri Vulcaniche






- Altitudine del aeroporto : 453 ft
- Codice IATA : SBK


LFRT - St Brieuc Armor

ULTIMO METAR :
  • 290930Z AUTO 05024KT 9999 BKN039 OVC045 05/M02 Q1032

METARs OBSOLETI :
  • 290900Z AUTO 06021G32KT 9999 BKN045 OVC054 05/M03 Q1032
  • 290830Z AUTO 05024KT 9999 FEW043 OVC050 05/M03 Q1032
  • 290800Z AUTO 05024G35KT 9999 FEW030 BKN039 OVC050 05/M01 Q1032
  • 290730Z AUTO 05025KT 9999 BKN029 BKN048 OVC054 05/M00 Q1032
  • 290700Z AUTO 05024G34KT 9999 BKN028 OVC046 05/01 Q1031

Previsioni scadute.



MetMap, La meteo Aeronautica in un colpo d'occhio ! - Copyright ORBIFLY Dicembre 2007 - Disclaimer

ORBIFLY MET'MAP TEAM :

Programmazione e sviluppo : Alexandra Zaïnal
Concezione : Baudouin d'Aumeries
Aiuto per la programmazione : Marc-Olivier Méhu
Supporto tecnico e logistico : Manuel Goepfert
Aiuto per la traduzione : Arnaldo La Scala

Contatto : metmap@orbifly.com




FONTI E CREDITI :

   NOAA